Flight Track Log - Related Links

Times and Time Zones

All times are in EDT time to prevent confusion due to time zone crossing. See the CCA4523 flight status page for this flight to view local times or setup timezone preferences in your user account.

Time Position Orientation Groundspeed Altitude Reporting Facility
EDT Latitude Longitude Course Direction KTS MPH feet Rate Location/Type
Thu 09:15:00 PM 32.8433 104.2527 91° East  Level Estimated
Thu 09:16:00 PM 32.8394 104.3951 92° East  Level Estimated
Thu 09:17:00 PM 32.8354 104.5375 92° East  Level Estimated
Thu 09:18:00 PM 32.8313 104.6798 92° East  Level Estimated
Thu 09:19:00 PM 32.8270 104.8222 92° East  Level Estimated
Thu 09:20:00 PM 32.8225 104.9645 92° East  Level Estimated
Thu 09:21:00 PM 32.8178 105.1068 92° East  Level Estimated
Thu 09:22:00 PM 32.8130 105.2492 92° East  Level Estimated
Thu 09:22:28 PM 32.8220 104.4090 92° East 462 532 28,300  Level FlightAware ADS-B
Thu 09:22:52 PM 32.8020 104.4680 112° Southeast 466 536 29,000 1,575 Climbing FlightAware ADS-B
Thu 09:23:00 PM 32.8081 105.3914 92° East  Level Estimated
Thu 09:23:48 PM 32.7580 104.6030 111° Southeast 477 549 30,400  Level FlightAware ADS-B
Thu 09:24:37 PM 32.7250 104.7050 111° Southeast 477 549 30,400  Level FlightAware ADS-B
Thu 09:25:37 PM 32.6850 104.8300 111° Southeast 477 549 30,400  Level FlightAware ADS-B
Thu 09:26:25 PM 32.6520 104.9290 112° Southeast 477 549 30,400  Level FlightAware ADS-B
Thu 09:27:25 PM 32.6120 105.0540 111° Southeast 477 549 30,400  Level FlightAware ADS-B
Thu 09:28:01 PM 32.5880 105.1290 111° Southeast 477 549 30,400  Level FlightAware ADS-B
Thu 09:28:50 PM 32.5550 105.2310 111° Southeast 477 549 30,400  Level FlightAware ADS-B
Thu 09:29:15 PM 32.5380 105.2830 111° Southeast 477 549 30,400  Level FlightAware ADS-B
Thu 09:30:03 PM 32.5060 105.3820 111° Southeast 477 549 30,400  Level FlightAware ADS-B
Thu 09:31:04 PM 32.4650 105.5090 111° Southeast 477 549 30,400  Level FlightAware ADS-B
Thu 09:32:05 PM 32.4240 105.6360 111° Southeast 477 549 30,400  Level FlightAware ADS-B
Thu 09:32:54 PM 32.3910 105.7370 111° Southeast 477 549 30,400  Level FlightAware ADS-B
Thu 09:33:42 PM 32.3590 105.8370 111° Southeast 477 549 30,400 86 Level FlightAware ADS-B
Thu 09:36:00 PM 32.3544 106.1629 91° East  Level Estimated
Thu 09:37:00 PM 32.3521 106.3045 91° East  Level Estimated
Thu 09:38:00 PM 32.3497 106.4462 91° East  Level Estimated
Thu 09:39:00 PM 32.3471 106.5878 91° East  Level Estimated
Thu 09:40:00 PM 32.3444 106.7295 91° East  Level Estimated
Thu 09:41:00 PM 32.3415 106.8711 91° East  Level Estimated
Thu 09:42:00 PM 32.3384 107.0127 91° East  Level Estimated
Thu 09:43:00 PM 32.3352 107.1543 92° East  Level Estimated
Thu 09:44:00 PM 32.3319 107.2959 92° East  Level Estimated
Thu 09:45:00 PM 32.3283 107.4375 92° East  Level Estimated
Thu 09:46:00 PM 32.3246 107.5791 92° East  Level Estimated
Thu 09:47:00 PM 32.3208 107.7207 92° East  Level Estimated
Thu 09:48:00 PM 32.3168 107.8622 92° East  Level Estimated
Thu 09:49:00 PM 32.3126 108.0038 92° East  Level Estimated
Thu 09:50:00 PM 32.3083 108.1453 92° East  Level Estimated
Thu 09:51:00 PM 32.3038 108.2868 92° East  Level Estimated
Thu 09:52:00 PM 32.2992 108.4283 92° East  Level Estimated
Thu 09:53:00 PM 32.2944 108.5698 92° East  Level Estimated
Thu 09:54:00 PM 32.2895 108.7113 92° East  Level Estimated
Thu 09:55:00 PM 32.2843 108.8528 92° East  Level Estimated
Thu 09:56:00 PM 32.2791 108.9942 92° East  Level Estimated
Thu 09:57:00 PM 32.2737 109.1356 93° East  Level Estimated
Thu 09:58:00 PM 32.2681 109.2770 93° East  Level Estimated
Thu 09:59:00 PM 32.2623 109.4184 93° East  Level Estimated
Thu 10:00:00 PM 32.2564 109.5598 93° East  Level Estimated
Thu 10:01:00 PM 32.2504 109.7011 93° East  Level Estimated
Thu 10:02:00 PM 32.2442 109.8425 93° East  Level Estimated
Thu 10:03:00 PM 32.2378 109.9838 93° East  Level Estimated
Thu 10:04:00 PM 32.2313 110.1251 93° East  Level Estimated
Thu 10:05:00 PM 32.2246 110.2664 93° East  Level Estimated
Thu 10:06:00 PM 32.2178 110.4076 93° East  Level Estimated
Thu 10:07:00 PM 32.2108 110.5489 93° East  Level Estimated
Thu 10:08:00 PM 32.2036 110.6901 93° East  Level Estimated
Thu 10:09:00 PM 32.1963 110.8313 93° East  Level Estimated
Thu 10:10:00 PM 32.1888 110.9724 94° East  Level Estimated
Thu 10:11:00 PM 32.1812 111.1136 94° East  Level Estimated
Thu 10:12:00 PM 32.1734 111.2547 94° East  Level Estimated
Thu 10:13:00 PM 32.1655 111.3958 94° East  Level Estimated
Thu 10:14:00 PM 32.1574 111.5369 94° East  Level Estimated
Thu 10:15:00 PM 32.1491 111.6779 94° East  Level Estimated
Thu 10:16:00 PM 32.1407 111.8189 94° East  Level Estimated
Thu 10:17:00 PM 32.1322 111.9599 94° East  Level Estimated
Thu 10:18:00 PM 32.1235 112.1009 94° East  Level Estimated
Thu 10:19:00 PM 32.1146 112.2418 94° East  Level Estimated
Thu 10:20:00 PM 32.1055 112.3827 94° East  Level Estimated
Thu 10:21:00 PM 32.0964 112.5236 94° East  Level Estimated
Thu 10:22:00 PM 32.0870 112.6645 94° East  Level Estimated
Thu 10:23:00 PM 32.0775 112.8053 95° East  Level Estimated
Thu 10:24:00 PM 32.0678 112.9461 95° East  Level Estimated
Thu 10:25:00 PM 32.0580 113.0868 95° East  Level Estimated
Thu 10:26:00 PM 32.0481 113.2275 95° East  Level Estimated
Thu 10:27:00 PM 32.0379 113.3682 95° East  Level Estimated
Thu 10:27:45 PM 33.5120 113.8480 95° East 482 555 35,100  Level FlightAware ADS-B
Thu 10:28:00 PM 32.0277 113.5089 95° East  Level Estimated
Thu 10:28:50 PM 33.4230 114.0000 125° Southeast 483 556 35,100  Level FlightAware ADS-B
Thu 10:29:24 PM 33.3760 114.0800 125° Southeast 484 557 35,100  Level FlightAware ADS-B
Thu 10:30:19 PM 33.3180 114.1930 122° Southeast 487 560 35,100  Level FlightAware ADS-B
Thu 10:30:47 PM 33.2890 114.2730 113° Southeast 487 560 35,100  Level FlightAware ADS-B
Thu 10:31:23 PM 33.2640 114.3570 110° East 486 559 35,100  Level FlightAware ADS-B
Thu 10:32:23 PM 33.2160 114.5140 110° East 484 557 35,100  Level FlightAware ADS-B
Thu 10:33:16 PM 33.1790 114.6330 110° East 484 557 35,100  Level FlightAware ADS-B
Thu 10:34:02 PM 33.1410 114.7560 110° East 486 559 35,100  Level FlightAware ADS-B
Thu 10:35:02 PM 33.0900 114.9150 111° Southeast 489 563 35,100  Level FlightAware ADS-B
Thu 10:35:39 PM 33.0630 115.0020 110° East 490 564 35,100  Level FlightAware ADS-B
Thu 10:36:35 PM 33.0190 115.1410 111° Southeast 491 565 35,100  Level FlightAware ADS-B
Thu 10:37:37 PM 32.9670 115.3020 111° Southeast 490 564 35,100  Level FlightAware ADS-B
Thu 10:37:47 PM 32.9600 115.3250 110° East 491 565 35,100  Level FlightAware ADS-B
Thu 10:38:54 PM 32.9050 115.4960 111° Southeast 489 563 35,100  Level FlightAware ADS-B
Thu 10:39:20 PM 32.8860 115.5570 110° East 489 563 35,100  Level FlightAware ADS-B
Thu 10:40:32 PM 32.8290 115.7200 113° Southeast 489 563 35,100  Level FlightAware ADS-B
Thu 10:41:33 PM 32.8120 115.7710 112° Southeast 489 563 35,100  Level FlightAware ADS-B
Thu 10:42:22 PM 32.7780 115.8760 111° Southeast 489 563 35,100  Level FlightAware ADS-B
Thu 10:44:04 PM 32.7840 115.7510 273° West 479 551 35,100  Level FlightAware ADS-B
Thu 10:44:52 PM 32.7260 115.8330 130° Southeast 479 551 35,100  Level FlightAware ADS-B
Thu 10:45:52 PM 32.6530 115.9360 130° Southeast 479 551 35,100  Level FlightAware ADS-B
Thu 10:46:40 PM 32.5950 116.0180 130° Southeast 479 551 35,100  Level FlightAware ADS-B
Thu 10:47:16 PM 32.5510 116.0800 130° Southeast 479 551 35,100  Level FlightAware ADS-B
Thu 10:47:52 PM 32.5080 116.1420 129° Southeast 479 551 35,100  Level FlightAware ADS-B
Thu 10:48:28 PM 32.4640 116.2030 131° Southeast 479 551 35,100  Level FlightAware ADS-B
Thu 10:49:05 PM 32.4190 116.2670 130° Southeast 479 551 35,100  Level FlightAware ADS-B
Thu 10:49:53 PM 32.3610 116.3490 130° Southeast 479 551 35,100  Level FlightAware ADS-B
Thu 10:50:53 PM 32.2880 116.4510 130° Southeast 479 551 35,100  Level FlightAware ADS-B
Thu 10:51:17 PM 32.2590 116.4920 130° Southeast 479 551 35,100  Level FlightAware ADS-B
Thu 10:51:55 PM 32.2130 116.5570 130° Southeast 479 551 35,100  Level FlightAware ADS-B
Thu 10:52:29 PM 32.1720 116.6150 130° Southeast 479 551 35,100  Level FlightAware ADS-B
Thu 10:55:00 PM 32.1100 116.9632 102° East  Level Estimated
Thu 10:56:00 PM 32.0852 117.1014 102° East  Level Estimated
Thu 10:57:00 PM 32.0601 117.2395 102° East  Level Estimated
Thu 10:58:00 PM 32.0350 117.3775 102° East  Level Estimated
Thu 10:59:00 PM 32.0096 117.5155 102° East  Level Estimated
Thu 11:00:00 PM 31.9841 117.6534 102° East  Level Estimated
Thu 11:01:00 PM 31.9585 117.7913 102° East  Level Estimated
Thu 11:02:00 PM 31.9327 117.9290 102° East  Level Estimated
Thu 11:02:18 PM 31.6490 118.8040 102° East 523 602 35,100  Level FlightAware ADS-B
Thu 11:03:00 PM 31.9068 118.0667 102° East  Level Estimated
Thu 11:04:00 PM 31.6450 118.9220 92° East 523 602 34,700  Level FlightAware ADS-B
Thu 11:04:25 PM 31.6440 118.9820 91° East 523 602 34,700  Level FlightAware ADS-B
Thu 11:04:59 PM 31.6410 119.0640 92° East 523 602 34,700  Level FlightAware ADS-B
Thu 11:05:36 PM 31.6380 119.1540 92° East 523 602 34,700  Level FlightAware ADS-B
Thu 11:06:10 PM 31.6360 119.2360 92° East 523 602 34,700  Level FlightAware ADS-B
Thu 11:06:35 PM 31.6340 119.2960 92° East 523 602 34,700  Level FlightAware ADS-B
Thu 11:07:11 PM 31.6320 119.3830 92° East 523 602 34,700  Level FlightAware ADS-B
Thu 11:07:48 PM 31.6290 119.4720 92° East 523 602 34,700  Level FlightAware ADS-B
Thu 11:08:24 PM 31.6260 119.5590 92° East 523 602 34,700  Level FlightAware ADS-B
Thu 11:09:25 PM 31.6220 119.7070 92° East 523 602 34,700  Level FlightAware ADS-B
Thu 11:09:50 PM 31.6200 119.7670 92° East 523 602 34,700  Level FlightAware ADS-B
Thu 11:10:26 PM 31.6180 119.8540 92° East 523 602 34,700  Level FlightAware ADS-B
Thu 11:10:50 PM 31.6160 119.9120 92° East 523 602 34,700  Level FlightAware ADS-B
Thu 11:11:26 PM 31.6130 119.9990 92° East 523 602 34,700  Level FlightAware ADS-B
Thu 11:12:04 PM 31.6110 120.0900 91° East 523 602 34,700 -6,207 Level FlightAware ADS-B
Thu 11:13:51 PM 31.5150 120.5710 103° East 418 481 19,700 -6,338 Descending FlightAware ADS-B
Thu 11:14:26 PM 31.4930 120.6460 109° East 416 479 19,700 -1,500 Level FlightAware ADS-B
Thu 11:15:31 PM 31.4520 120.7830 109° East 405 466 17,200 -2,220 Descending FlightAware ADS-B
Thu 11:16:06 PM 31.4310 120.8520 110° East 395 455 16,000 -2,084 Descending FlightAware ADS-B
Thu 11:17:06 PM 31.3940 120.9720 110° East 382 440 13,900 -1,148 Descending FlightAware ADS-B
Thu 11:18:01 PM 31.3630 121.0760 109° East 352 405 13,800 -76 Descending FlightAware ADS-B
Thu 11:18:25 PM 31.3480 121.1130 115° Southeast 331 381 13,800  Level FlightAware ADS-B
Thu 11:19:06 PM 31.3000 121.1640 138° Southeast 323 372 13,800  Level FlightAware ADS-B
Thu 11:19:41 PM 31.2600 121.2040 139° Southeast 321 369 13,800 -200 Level FlightAware ADS-B
Thu 11:20:36 PM 31.1990 121.2650 139° Southeast 320 368 13,500 -1,158 Descending FlightAware ADS-B
Thu 11:21:35 PM 31.1340 121.3310 139° Southeast 328 377 11,600 -2,000 Descending FlightAware ADS-B
Thu 11:22:00 PM 31.1140 121.3670 123° Southeast 329 379 10,700 -2,118 Descending FlightAware ADS-B
Thu 11:22:26 PM 31.0970 121.4130 113° Southeast 325 374 9,800 -1,529 Descending FlightAware ADS-B
Thu 11:22:51 PM 31.0830 121.4540 112° Southeast 308 354 9,400 -1,050 Descending FlightAware ADS-B
Thu 11:23:06 PM 31.0760 121.4740 112° Southeast 296 341 9,100 -2,200 Descending FlightAware ADS-B
Thu 11:23:51 PM 31.0520 121.5400 113° Southeast 289 333 7,200 -1,735 Descending FlightAware ADS-B
Thu 11:24:29 PM 31.0320 121.5920 114° Southeast 252 290 6,700 -517 Descending FlightAware ADS-B
Thu 11:24:49 PM 31.0240 121.6150 112° Southeast 229 264 6,700 -240 Level FlightAware ADS-B
Thu 11:25:19 PM 31.0120 121.6480 113° Southeast 210 242 6,500 -727 Descending FlightAware ADS-B
Thu 11:25:55 PM 30.9890 121.6770 133° Southeast 211 243 5,900 -1,082 Descending FlightAware ADS-B
Thu 11:26:20 PM 30.9680 121.6910 150° Southeast 211 243 5,400 -1,119 Descending FlightAware ADS-B
Thu 11:26:54 PM 30.9360 121.7120 151° Southeast 210 242 4,800 -712 Descending FlightAware ADS-B
Thu 11:27:19 PM 30.9170 121.7250 150° Southeast 211 243 4,700 -118 Descending FlightAware ADS-B
Thu 11:27:45 PM 30.8940 121.7400 151° Southeast 207 238 4,700  Level FlightAware ADS-B
Thu 11:28:10 PM 30.8710 121.7550 151° Southeast 207 238 4,700 -203 Level FlightAware ADS-B
Thu 11:28:44 PM 30.8420 121.7770 147° Southeast 212 244 4,500 -436 Descending FlightAware ADS-B
Thu 11:29:05 PM 30.8350 121.7930 117° Southeast 193 222 4,300 -676 Descending FlightAware ADS-B
Thu 11:29:55 PM 30.8340 121.8450 91° East 180 207 3,700 -404 Descending FlightAware ADS-B
Thu 11:30:34 PM 30.8590 121.8640 33° Northeast 154 177 3,700  Level FlightAware ADS-B
Thu 11:31:04 PM 30.8790 121.8700 14° North 135 155 3,700  Level FlightAware ADS-B
Thu 11:31:40 PM 30.9000 121.8760 14° North 132 152 3,700  Level FlightAware ADS-B
Thu 11:32:20 PM 30.9270 121.8690 347° North 134 154 3,700 -174 Level FlightAware ADS-B
Thu 11:32:49 PM 30.9460 121.8620 342° North 135 155 3,500 -600 Descending FlightAware ADS-B
Thu 11:33:20 PM 30.9650 121.8550 342° North 135 155 3,100 -750 Descending FlightAware ADS-B
Thu 11:33:45 PM 30.9790 121.8500 343° North 134 154 2,800 -814 Descending FlightAware ADS-B
Thu 11:34:19 PM 31.0020 121.8410 341° North 134 154 2,300 -783 Descending FlightAware ADS-B
Thu 11:34:54 PM 31.0230 121.8330 342° North 123 142 1,900 -592 Descending FlightAware ADS-B
Thu 11:35:30 PM 31.0410 121.8260 342° North 102 117 1,600 -636 Descending FlightAware ADS-B
Thu 11:36:00 PM 31.0560 121.8210 344° North 103 119 1,200 -656 Descending FlightAware ADS-B
Thu 11:36:34 PM 31.0730 121.8140 341° North 100 115 900 -295 Descending FlightAware ADS-B
Thu 11:37:01 PM 31.0830 121.8100 341° North 100 115 900 -545 Level FlightAware ADS-B
Thu 11:37:29 PM 31.0990 121.8050 345° North 107 123 400 -500 Descending FlightAware ADS-B
Thu 11:38:01 PM 31.1100 121.8010 343° North 106 122 400  Level FlightAware ADS-B

Login

Don't have an account? Register now (free) for customized features, flight alerts, and more!